Portada
METAR-TAF:

METAR-TAF

Aeroports :

Masjed-Soleyman, Iran

latitud: 31-59N, longitud: 049-16E, altitud: 372 m

Observació

L'informe es va fer fa 51 minuts, a les 16:51 UTC
Vent 2 kt del Nord-Oest
Temperatura 15°C
Humitat 67%
Pressió 1011 hPa
Visibilitat 10 km o més
Escasses núvols a una alçada de 4000 ft

METAR: OIAI 071651Z 32002KT 9999 FEW040 15/09 Q1011

Hora: 21:12 (17:42 UTC)


TAF: manca

Observacions i pronòstics meteorològics de més de 4000 aeroports (METAR i TAF).

Les estacions disponibles són els punts grocs i vermells al mapa.

Posi el ratolí al punt desitjat per veure el nom de l'estació.

Feu clic per veure les observacions i els pronòstics meteorològics.

Per canviar el mapa: feu clic els botons verds amb una creu de color negre per apropar; al botó verd amb un guió per allunyar la imatge; o en les fletxes verdes per a mapes adjacents.


METAR-TAF: